createdAt,value
2018-01-19T00:00:16.546Z,6.47
2018-01-19T00:02:44.006Z,7.43
2018-01-19T00:05:12.323Z,6.83
2018-01-19T00:07:39.801Z,7.20
2018-01-19T00:10:07.261Z,7.50
2018-01-19T00:12:34.759Z,7.70
2018-01-19T00:15:03.004Z,6.97
2018-01-19T00:17:30.462Z,6.00
2018-01-19T00:19:57.922Z,6.67
2018-01-19T00:22:25.405Z,4.90
2018-01-19T00:24:53.634Z,4.13
2018-01-19T00:27:21.106Z,4.20
2018-01-19T00:29:48.569Z,4.07
2018-01-19T00:32:16.082Z,3.80
2018-01-19T00:34:43.639Z,3.73
2018-01-19T00:37:11.142Z,4.23
2018-01-19T00:39:38.593Z,5.10
2018-01-19T00:42:06.050Z,5.20
2018-01-19T00:44:33.531Z,5.70
2018-01-19T00:47:01.747Z,5.73
2018-01-19T00:49:29.240Z,6.17
2018-01-19T00:51:56.694Z,6.43
2018-01-19T00:54:24.165Z,6.10
2018-01-19T00:56:52.432Z,7.30
2018-01-19T00:59:19.905Z,7.87
2018-01-19T01:01:48.158Z,8.03
2018-01-19T01:04:15.619Z,8.70
2018-01-19T01:06:43.102Z,8.57
2018-01-19T01:09:11.339Z,9.23
2018-01-19T01:11:38.861Z,10.13
2018-01-19T01:14:06.421Z,10.70
2018-01-19T01:16:33.888Z,11.33
2018-01-19T01:19:01.935Z,11.67
2018-01-19T01:21:29.410Z,11.23
2018-01-19T01:23:56.874Z,12.47
2018-01-19T01:26:24.417Z,12.97
2018-01-19T01:28:51.879Z,12.90
2018-01-19T01:31:19.373Z,12.10
2018-01-19T01:33:46.833Z,13.40
2018-01-19T01:36:14.318Z,11.97
2018-01-19T01:38:42.550Z,10.53
2018-01-19T01:41:10.030Z,9.77
2018-01-19T01:43:38.297Z,11.70
2018-01-19T01:46:05.772Z,10.27
2018-01-19T01:48:34.002Z,9.30
2018-01-19T01:51:03.764Z,9.57
2018-01-19T01:53:32.018Z,10.07
2018-01-19T01:55:59.492Z,10.37
2018-01-19T01:58:27.757Z,14.17
2018-01-19T02:00:55.198Z,16.30
2018-01-19T02:03:22.761Z,16.57
2018-01-19T02:05:50.214Z,18.47
2018-01-19T02:08:18.462Z,20.20
2018-01-19T02:10:45.945Z,21.20
2018-01-19T02:13:13.397Z,19.00
2018-01-19T02:15:40.861Z,20.40
2018-01-19T02:18:08.337Z,19.30
2018-01-19T02:20:36.577Z,19.63
2018-01-19T02:23:04.061Z,20.30
2018-01-19T02:25:32.300Z,23.80
2018-01-19T02:27:59.774Z,23.30
2018-01-19T02:30:27.288Z,24.20
2018-01-19T02:32:54.735Z,25.80
2018-01-19T02:35:22.205Z,26.07
2018-01-19T02:37:49.669Z,26.37
2018-01-19T02:40:17.142Z,28.07
2018-01-19T02:42:44.616Z,26.83
2018-01-19T02:45:12.093Z,26.83
2018-01-19T02:47:40.338Z,25.10
2018-01-19T02:50:07.810Z,24.80
2018-01-19T02:52:36.234Z,26.10
2018-01-19T02:55:03.699Z,24.60
2018-01-19T02:57:31.205Z,24.70
2018-01-19T02:59:58.758Z,27.50
2018-01-19T03:02:26.242Z,29.10
2018-01-19T03:04:53.725Z,29.30
2018-01-19T03:07:21.180Z,31.00
2018-01-19T03:09:48.649Z,30.40
2018-01-19T03:12:16.121Z,33.20
2018-01-19T03:14:43.599Z,33.10
2018-01-19T03:17:11.065Z,30.13
2018-01-19T03:19:39.313Z,31.00
2018-01-19T03:22:06.774Z,31.03
2018-01-19T03:24:34.237Z,29.30
2018-01-19T03:27:01.797Z,26.50
2018-01-19T03:29:29.264Z,23.43
2018-01-19T03:31:56.724Z,19.13
2018-01-19T03:34:24.981Z,21.07
2018-01-19T03:36:52.450Z,19.00
2018-01-19T03:39:19.921Z,15.40
2018-01-19T03:41:48.154Z,15.70
2018-01-19T03:44:15.634Z,11.10
2018-01-19T03:46:43.116Z,10.17
2018-01-19T03:49:10.597Z,9.23
2018-01-19T03:51:38.077Z,10.10
2018-01-19T03:54:05.539Z,10.47
2018-01-19T03:56:33.016Z,10.30
2018-01-19T03:59:00.478Z,11.60
2018-01-19T04:01:28.727Z,11.97
2018-01-19T04:03:56.189Z,12.10
2018-01-19T04:06:23.674Z,11.77
2018-01-19T04:08:51.893Z,13.33
2018-01-19T04:11:19.399Z,13.20
2018-01-19T04:13:46.947Z,12.20
2018-01-19T04:16:14.401Z,9.80
2018-01-19T04:18:43.386Z,9.33
2018-01-19T04:21:10.858Z,9.40
2018-01-19T04:23:38.358Z,9.90
2018-01-19T04:26:05.810Z,8.97
2018-01-19T04:28:33.270Z,8.60
2018-01-19T04:31:00.742Z,9.60
2018-01-19T04:33:28.229Z,10.90
2018-01-19T04:35:55.705Z,11.00
2018-01-19T04:38:23.936Z,11.70
2018-01-19T04:40:51.421Z,11.13
2018-01-19T04:43:18.897Z,11.67
2018-01-19T04:45:47.153Z,11.83
2018-01-19T04:48:14.629Z,12.50
2018-01-19T04:50:42.864Z,11.33
2018-01-19T04:53:10.341Z,12.20
2018-01-19T04:55:37.956Z,11.87
2018-01-19T04:58:05.421Z,10.83
2018-01-19T05:00:32.902Z,11.40
2018-01-19T05:03:00.373Z,11.07
2018-01-19T05:05:27.842Z,12.63
2018-01-19T05:07:56.086Z,13.03
2018-01-19T05:10:23.578Z,14.20
2018-01-19T05:12:51.804Z,15.37
2018-01-19T05:15:19.277Z,17.57
2018-01-19T05:17:46.737Z,16.60
2018-01-19T05:20:14.206Z,19.03
2018-01-19T05:22:41.715Z,20.03
2018-01-19T05:25:09.170Z,18.80
2018-01-19T05:27:36.642Z,18.40
2018-01-19T05:30:04.105Z,16.20
2018-01-19T05:32:31.590Z,17.87
2018-01-19T05:34:59.046Z,15.63
2018-01-19T05:37:26.522Z,17.13
2018-01-19T05:39:54.751Z,17.33
2018-01-19T05:42:22.226Z,17.87
2018-01-19T05:44:49.694Z,17.77
2018-01-19T05:47:17.161Z,18.20
2018-01-19T05:49:45.396Z,19.00
2018-01-19T05:52:12.853Z,21.47
2018-01-19T05:54:40.341Z,18.47
2018-01-19T05:57:07.797Z,21.37
2018-01-19T05:59:35.254Z,21.03
2018-01-19T06:02:03.509Z,21.80
2018-01-19T06:04:30.983Z,21.30
2018-01-19T06:06:58.454Z,20.80
2018-01-19T06:09:26.693Z,21.10
2018-01-19T06:11:54.153Z,19.13
2018-01-19T06:14:22.381Z,20.17
2018-01-19T06:16:49.858Z,19.90
2018-01-19T06:19:17.337Z,16.80
2018-01-19T06:21:44.825Z,16.10
2018-01-19T06:24:13.054Z,14.57
2018-01-19T06:26:40.527Z,15.40
2018-01-19T06:29:07.981Z,15.33
2018-01-19T06:31:35.466Z,16.27
2018-01-19T06:34:03.696Z,16.23
2018-01-19T06:36:31.177Z,17.27
2018-01-19T06:38:58.634Z,18.33
2018-01-19T06:41:26.135Z,19.57
2018-01-19T06:43:53.598Z,21.33
2018-01-19T06:46:21.053Z,20.83
2018-01-19T06:48:48.528Z,19.27
2018-01-19T06:51:15.981Z,18.50
2018-01-19T06:53:43.453Z,18.77
2018-01-19T06:56:10.923Z,17.93
2018-01-19T06:58:38.411Z,16.97
2018-01-19T07:01:06.633Z,18.53
2018-01-19T07:03:34.125Z,19.03
2018-01-19T07:06:01.590Z,16.90
2018-01-19T07:08:29.826Z,17.70
2018-01-19T07:10:57.306Z,15.80
2018-01-19T07:13:24.778Z,16.53
2018-01-19T07:15:53.009Z,15.60
2018-01-19T07:18:20.481Z,13.37
2018-01-19T07:20:47.950Z,17.63
2018-01-19T07:23:15.426Z,16.43
2018-01-19T07:25:43.691Z,16.87
2018-01-19T07:28:11.158Z,17.50
2018-01-19T07:30:39.410Z,16.57
2018-01-19T07:33:06.875Z,17.00
2018-01-19T07:35:34.358Z,17.50
2018-01-19T07:38:02.585Z,15.73
2018-01-19T07:40:30.069Z,17.13
2018-01-19T07:42:57.539Z,17.63
2018-01-19T07:45:25.765Z,16.57
2018-01-19T07:47:53.250Z,17.83
2018-01-19T07:50:20.818Z,16.83
2018-01-19T07:52:49.069Z,18.20
2018-01-19T07:55:16.528Z,16.77
2018-01-19T07:57:44.019Z,18.00
2018-01-19T08:00:12.250Z,18.23
2018-01-19T08:02:39.784Z,17.87
2018-01-19T08:05:07.253Z,17.27
2018-01-19T08:07:34.725Z,19.70
2018-01-19T08:10:02.197Z,19.37
2018-01-19T08:12:29.673Z,19.93
2018-01-19T08:14:57.910Z,20.07
2018-01-19T08:17:25.370Z,20.13
2018-01-19T08:19:52.833Z,20.00
2018-01-19T08:22:20.311Z,20.67
2018-01-19T08:24:48.568Z,23.17
2018-01-19T08:27:16.030Z,22.60
2018-01-19T08:29:43.501Z,21.53
2018-01-19T08:32:11.742Z,22.83
2018-01-19T08:34:39.209Z,21.40
2018-01-19T08:37:06.687Z,19.60
2018-01-19T08:39:34.925Z,20.83
2018-01-19T08:42:02.393Z,19.93
2018-01-19T08:44:29.953Z,20.10
2018-01-19T08:46:57.433Z,19.50
2018-01-19T08:49:24.913Z,17.27
2018-01-19T08:51:52.395Z,17.67
2018-01-19T08:54:19.857Z,17.67
2018-01-19T08:56:47.325Z,18.00
2018-01-19T08:59:14.797Z,18.60
2018-01-19T09:01:42.288Z,19.83
2018-01-19T09:04:09.769Z,17.00
2018-01-19T09:06:37.230Z,19.53
2018-01-19T09:09:04.718Z,16.33
2018-01-19T09:11:32.183Z,14.47
2018-01-19T09:13:59.689Z,14.00
2018-01-19T09:16:27.165Z,11.60
2018-01-19T09:18:54.618Z,12.07
2018-01-19T09:21:22.102Z,9.77
2018-01-19T09:23:49.577Z,9.47
2018-01-19T09:26:17.037Z,8.70
2018-01-19T09:28:45.290Z,9.97
2018-01-19T09:31:12.754Z,9.07
2018-01-19T09:33:40.213Z,8.70
2018-01-19T09:36:07.712Z,7.73
2018-01-19T09:38:35.222Z,7.80
2018-01-19T09:41:02.695Z,7.50
2018-01-19T09:43:30.154Z,6.40
2018-01-19T09:45:58.410Z,6.60
2018-01-19T09:48:25.870Z,6.13
2018-01-19T09:50:54.842Z,6.20
2018-01-19T09:53:22.313Z,6.20
2018-01-19T09:55:49.832Z,5.93
2018-01-19T09:58:17.286Z,4.70
2018-01-19T10:00:44.745Z,5.30
2018-01-19T10:03:12.220Z,5.53
2018-01-19T10:05:39.677Z,5.83
2018-01-19T10:08:07.137Z,6.00
2018-01-19T10:10:34.613Z,6.37
2018-01-19T10:13:02.846Z,5.63
2018-01-19T10:15:30.323Z,5.57
2018-01-19T10:17:57.786Z,5.63
2018-01-19T10:20:25.253Z,5.60
2018-01-19T10:22:52.771Z,6.10
2018-01-19T10:25:20.235Z,5.40
2018-01-19T10:27:47.718Z,5.10
2018-01-19T10:30:15.182Z,5.40
2018-01-19T10:32:42.657Z,5.10
2018-01-19T10:35:10.118Z,4.43
2018-01-19T10:37:38.353Z,4.33
2018-01-19T10:40:05.810Z,4.30
2018-01-19T10:42:33.290Z,4.10
2018-01-19T10:45:00.745Z,3.70
2018-01-19T10:47:28.202Z,3.80
2018-01-19T10:49:55.657Z,3.33
2018-01-19T10:52:23.110Z,4.23
2018-01-19T10:54:50.577Z,4.30
2018-01-19T10:57:18.043Z,3.57
2018-01-19T10:59:45.501Z,3.43
2018-01-19T11:02:13.714Z,4.40
2018-01-19T11:04:41.268Z,3.30
2018-01-19T11:07:08.829Z,3.80
2018-01-19T11:09:36.312Z,3.70
2018-01-19T11:12:03.766Z,2.70
2018-01-19T11:14:31.234Z,5.60
2018-01-19T11:16:59.478Z,4.13
2018-01-19T11:19:26.934Z,4.40
2018-01-19T11:21:54.407Z,4.57
2018-01-19T11:24:21.860Z,5.03
2018-01-19T11:26:49.398Z,4.20
2018-01-19T11:29:16.841Z,5.30
2018-01-19T11:31:44.298Z,4.70
2018-01-19T11:34:11.766Z,3.83
2018-01-19T11:36:39.233Z,3.90
2018-01-19T11:39:06.698Z,4.13
2018-01-19T11:41:34.165Z,3.87
2018-01-19T11:44:01.658Z,4.20
2018-01-19T11:46:29.932Z,4.37
2018-01-19T11:48:58.170Z,4.53
2018-01-19T11:51:25.646Z,4.20
2018-01-19T11:53:53.098Z,4.20
2018-01-19T11:56:20.612Z,3.90
2018-01-19T11:58:48.089Z,4.10
2018-01-19T12:01:15.556Z,4.50
2018-01-19T12:03:43.018Z,4.50
2018-01-19T12:06:10.497Z,4.57
2018-01-19T12:08:38.750Z,4.50
2018-01-19T12:11:06.209Z,4.67
2018-01-19T12:13:33.670Z,4.83
2018-01-19T12:16:01.144Z,4.10
2018-01-19T12:18:29.461Z,4.27
2018-01-19T12:20:56.929Z,4.20
2018-01-19T12:23:24.381Z,4.00
2018-01-19T12:25:51.848Z,4.27
2018-01-19T12:28:19.326Z,3.90
2018-01-19T12:30:46.790Z,3.50
2018-01-19T12:33:15.762Z,3.73
2018-01-19T12:35:43.237Z,3.90
2018-01-19T12:38:10.701Z,4.43
2018-01-19T12:40:38.944Z,4.07
2018-01-19T12:43:06.411Z,4.00
2018-01-19T12:45:33.868Z,5.83
2018-01-19T12:48:01.334Z,5.07
2018-01-19T12:50:28.821Z,4.83
2018-01-19T12:52:56.285Z,4.70
2018-01-19T12:55:23.770Z,4.63
2018-01-19T12:57:51.225Z,4.40
2018-01-19T13:00:18.711Z,3.87
2018-01-19T13:02:46.166Z,4.10
2018-01-19T13:05:13.639Z,4.57
2018-01-19T13:07:42.682Z,3.93
2018-01-19T13:10:10.172Z,4.00
2018-01-19T13:12:38.401Z,3.30
2018-01-19T13:15:07.322Z,3.67
2018-01-19T13:17:34.818Z,3.67
2018-01-19T13:20:03.062Z,3.00
2018-01-19T13:22:31.259Z,3.30
2018-01-19T13:24:58.702Z,2.90
2018-01-19T13:27:26.202Z,3.00
2018-01-19T13:29:54.444Z,2.87
2018-01-19T13:32:21.895Z,3.20
2018-01-19T13:34:50.130Z,2.83
2018-01-19T13:37:17.590Z,2.70
2018-01-19T13:39:45.070Z,3.30
2018-01-19T13:42:12.530Z,2.83
2018-01-19T13:44:39.982Z,2.87
2018-01-19T13:47:07.453Z,2.53
2018-01-19T13:49:34.912Z,4.30
2018-01-19T13:52:02.398Z,3.03
2018-01-19T13:54:30.701Z,3.30
2018-01-19T13:56:58.152Z,3.10
2018-01-19T13:59:25.625Z,3.20
2018-01-19T14:01:53.093Z,3.30
2018-01-19T14:04:20.574Z,4.37
2018-01-19T14:06:48.104Z,3.13
2018-01-19T14:09:16.294Z,4.07
2018-01-19T14:11:43.741Z,3.30
2018-01-19T14:14:11.218Z,2.03
2018-01-19T14:16:38.678Z,2.13
2018-01-19T14:19:06.134Z,2.70
2018-01-19T14:21:33.621Z,2.53
2018-01-19T14:24:01.073Z,2.00
2018-01-19T14:26:28.550Z,2.40
2018-01-19T14:28:56.004Z,3.47
2018-01-19T14:31:23.471Z,3.17
2018-01-19T14:33:50.926Z,3.00
2018-01-19T14:36:18.402Z,2.70
2018-01-19T14:38:45.886Z,2.70
2018-01-19T14:41:14.122Z,2.47
2018-01-19T14:43:41.591Z,3.03
2018-01-19T14:46:09.050Z,2.90
2018-01-19T14:48:36.536Z,2.70
2018-01-19T14:51:04.810Z,4.07
2018-01-19T14:53:32.289Z,3.00
2018-01-19T14:55:59.773Z,2.73
2018-01-19T14:58:27.242Z,2.73
2018-01-19T15:00:54.706Z,2.87
2018-01-19T15:03:22.209Z,2.53
2018-01-19T15:05:50.434Z,3.40
2018-01-19T15:08:17.897Z,2.93
2018-01-19T15:10:45.368Z,2.67
2018-01-19T15:13:14.332Z,3.63
2018-01-19T15:15:41.870Z,3.17
2018-01-19T15:18:09.322Z,2.80
2018-01-19T15:20:36.795Z,2.97
2018-01-19T15:23:04.259Z,3.47
2018-01-19T15:25:31.725Z,2.40
2018-01-19T15:27:59.309Z,2.50
2018-01-19T15:30:27.529Z,2.90
2018-01-19T15:32:55.009Z,2.97
2018-01-19T15:35:22.490Z,1.80
2018-01-19T15:37:49.953Z,2.00
2018-01-19T15:40:18.185Z,2.60
2018-01-19T15:42:45.662Z,2.80
2018-01-19T15:45:13.134Z,2.10
2018-01-19T15:47:40.634Z,2.43
2018-01-19T15:50:08.091Z,2.50
2018-01-19T15:52:35.566Z,2.70
2018-01-19T15:55:03.042Z,2.47
2018-01-19T15:57:30.498Z,2.40
2018-01-19T15:59:57.966Z,2.60
2018-01-19T16:02:25.425Z,3.00
2018-01-19T16:04:52.898Z,3.00
2018-01-19T16:07:21.170Z,2.60
2018-01-19T16:09:48.616Z,2.47
2018-01-19T16:12:16.089Z,2.40
2018-01-19T16:14:44.313Z,2.60
2018-01-19T16:17:11.782Z,2.80
2018-01-19T16:19:39.250Z,2.93
2018-01-19T16:22:06.790Z,3.60
2018-01-19T16:24:34.255Z,2.87
2018-01-19T16:27:01.730Z,2.90
2018-01-19T16:29:29.190Z,3.70
2018-01-19T16:31:56.756Z,2.90
2018-01-19T16:34:24.978Z,3.97
2018-01-19T16:36:52.463Z,4.50
2018-01-19T16:39:19.916Z,3.13
2018-01-19T16:41:47.397Z,3.83
2018-01-19T16:44:15.641Z,3.40
2018-01-19T16:46:43.106Z,3.30
2018-01-19T16:49:10.582Z,4.17
2018-01-19T16:51:38.041Z,3.80
2018-01-19T16:54:05.590Z,3.87
2018-01-19T16:56:33.058Z,4.10
2018-01-19T16:59:01.302Z,4.07
2018-01-19T17:01:28.761Z,4.77
2018-01-19T17:03:56.222Z,3.93
2018-01-19T17:06:23.698Z,3.70
2018-01-19T17:08:51.203Z,4.03
2018-01-19T17:11:18.662Z,4.03
2018-01-19T17:13:46.142Z,4.80
2018-01-19T17:16:13.616Z,5.50
2018-01-19T17:18:41.067Z,5.60
2018-01-19T17:21:08.551Z,5.00
2018-01-19T17:23:36.805Z,4.53
2018-01-19T17:26:04.294Z,5.00
2018-01-19T17:28:32.510Z,6.50
2018-01-19T17:30:59.986Z,5.20
2018-01-19T17:33:27.918Z,5.67
2018-01-19T17:35:56.161Z,4.30
2018-01-19T17:38:24.386Z,5.10
2018-01-19T17:40:51.881Z,5.00
2018-01-19T17:43:20.117Z,5.20
2018-01-19T17:45:47.591Z,5.80
2018-01-19T17:48:15.056Z,4.87
2018-01-19T17:50:43.066Z,4.67
2018-01-19T17:53:11.766Z,5.53
2018-01-19T17:55:39.220Z,5.17
2018-01-19T17:58:07.689Z,5.57
2018-01-19T18:00:36.392Z,5.50
2018-01-19T18:03:03.833Z,5.07
2018-01-19T18:05:31.311Z,5.40
2018-01-19T18:08:01.597Z,5.20
2018-01-19T18:10:29.854Z,5.10
2018-01-19T18:12:58.113Z,5.60
2018-01-19T18:15:25.681Z,4.70
2018-01-19T18:17:53.179Z,5.57
2018-01-19T18:20:20.642Z,6.07
2018-01-19T18:22:48.105Z,5.20
2018-01-19T18:25:17.834Z,5.27
2018-01-19T18:27:45.286Z,4.73
2018-01-19T18:30:12.782Z,4.30
2018-01-19T18:32:40.241Z,4.53
2018-01-19T18:35:08.505Z,5.37
2018-01-19T18:37:35.970Z,4.37
2018-01-19T18:40:03.442Z,4.80
2018-01-19T18:42:30.914Z,4.50
2018-01-19T18:44:59.370Z,4.73
2018-01-19T18:47:28.397Z,4.57
2018-01-19T18:49:55.877Z,4.80
2018-01-19T18:52:23.346Z,5.97
2018-01-19T18:54:50.818Z,5.23
2018-01-19T18:57:18.708Z,5.10
2018-01-19T18:59:48.026Z,5.70
2018-01-19T19:02:15.519Z,4.77
2018-01-19T19:04:44.226Z,5.47
2018-01-19T19:07:11.709Z,4.93
2018-01-19T19:09:39.930Z,5.60
2018-01-19T19:12:07.406Z,6.13
2018-01-19T19:14:35.449Z,6.93
2018-01-19T19:17:02.912Z,5.93
2018-01-19T19:19:30.410Z,5.70
2018-01-19T19:21:59.814Z,7.10
2018-01-19T19:24:28.589Z,6.30
2018-01-19T19:26:56.061Z,5.60
2018-01-19T19:29:24.289Z,6.13
2018-01-19T19:31:52.481Z,5.50
2018-01-19T19:34:19.977Z,6.30
2018-01-19T19:36:48.206Z,5.90
2018-01-19T19:39:16.652Z,6.10
2018-01-19T19:41:44.884Z,6.07
2018-01-19T19:44:14.913Z,5.93
2018-01-19T19:46:44.703Z,5.40
2018-01-19T19:49:12.542Z,6.13
2018-01-19T19:51:40.020Z,5.63
2018-01-19T19:54:08.061Z,5.83
2018-01-19T19:56:35.539Z,5.53
2018-01-19T19:59:03.608Z,5.40
2018-01-19T20:01:31.088Z,5.90
2018-01-19T20:03:58.583Z,5.60
2018-01-19T20:06:26.059Z,5.60
2018-01-19T20:08:53.525Z,5.43
2018-01-19T20:11:22.975Z,5.80
2018-01-19T20:13:51.332Z,5.20
2018-01-19T20:16:18.931Z,5.27
2018-01-19T20:18:46.914Z,5.40
2018-01-19T20:21:14.403Z,6.00
2018-01-19T20:23:42.232Z,5.23
2018-01-19T20:26:11.530Z,6.07
2018-01-19T20:28:39.403Z,5.90
2018-01-19T20:31:07.976Z,5.23
2018-01-19T20:33:35.843Z,4.70
2018-01-19T20:36:03.672Z,5.20
2018-01-19T20:38:31.472Z,5.13
2018-01-19T20:40:59.337Z,4.67
2018-01-19T20:43:27.204Z,4.60
2018-01-19T20:45:56.708Z,4.90
2018-01-19T20:48:24.573Z,5.10
2018-01-19T20:50:52.439Z,4.80
2018-01-19T20:53:20.407Z,5.10
2018-01-19T20:55:48.273Z,5.40
2018-01-19T20:58:17.060Z,5.10
2018-01-19T21:00:44.927Z,4.90
2018-01-19T21:03:12.793Z,5.10
2018-01-19T21:05:40.666Z,5.20
2018-01-19T21:08:08.179Z,4.73
2018-01-19T21:10:36.413Z,6.00
2018-01-19T21:13:03.887Z,5.13
2018-01-19T21:15:31.364Z,5.53
2018-01-19T21:17:59.585Z,4.60
2018-01-19T21:20:27.057Z,5.60
2018-01-19T21:22:54.517Z,5.27
2018-01-19T21:25:21.982Z,6.13
2018-01-19T21:27:50.230Z,5.10
2018-01-19T21:30:17.717Z,4.87
2018-01-19T21:32:45.234Z,5.70
2018-01-19T21:35:12.716Z,5.50
2018-01-19T21:37:40.198Z,6.03
2018-01-19T21:40:09.709Z,5.97
2018-01-19T21:42:37.169Z,6.00
2018-01-19T21:45:04.834Z,6.70
2018-01-19T21:47:33.075Z,6.77
2018-01-19T21:50:00.545Z,9.67
2018-01-19T21:52:28.086Z,15.67
2018-01-19T21:54:55.557Z,19.50
2018-01-19T21:57:23.041Z,12.57
2018-01-19T21:59:51.343Z,6.80
2018-01-19T22:02:18.800Z,6.60
2018-01-19T22:04:46.295Z,9.17
2018-01-19T22:07:13.737Z,6.43
2018-01-19T22:09:41.205Z,5.97
2018-01-19T22:12:08.693Z,11.70
2018-01-19T22:14:36.929Z,8.90
2018-01-19T22:17:04.397Z,6.07
2018-01-19T22:19:31.879Z,9.00
2018-01-19T22:21:59.341Z,7.77
2018-01-19T22:24:27.582Z,5.70
2018-01-19T22:26:55.050Z,6.23
2018-01-19T22:29:22.548Z,6.00
2018-01-19T22:31:50.041Z,5.13
2018-01-19T22:34:17.509Z,5.57
2018-01-19T22:36:44.961Z,5.17
2018-01-19T22:39:12.434Z,5.50
2018-01-19T22:41:39.906Z,7.27
2018-01-19T22:44:07.405Z,7.10
2018-01-19T22:46:34.862Z,6.17
2018-01-19T22:49:03.197Z,6.07
2018-01-19T22:51:30.657Z,6.40
2018-01-19T22:53:58.894Z,5.47
2018-01-19T22:56:26.370Z,5.33
2018-01-19T22:58:53.829Z,6.53
2018-01-19T23:01:21.339Z,5.50
2018-01-19T23:03:48.903Z,7.47
2018-01-19T23:06:16.922Z,5.33
2018-01-19T23:08:45.181Z,6.53
2018-01-19T23:11:16.362Z,6.23
2018-01-19T23:13:44.661Z,6.53
2018-01-19T23:16:12.730Z,5.33
2018-01-19T23:18:40.213Z,5.33
2018-01-19T23:21:08.010Z,6.17
2018-01-19T23:23:35.473Z,4.90
2018-01-19T23:26:03.723Z,5.33
2018-01-19T23:28:32.713Z,5.13
2018-01-19T23:31:00.955Z,5.33
2018-01-19T23:33:31.407Z,4.60
2018-01-19T23:35:58.877Z,4.87
2018-01-19T23:38:26.349Z,5.73
2018-01-19T23:40:55.286Z,4.70
2018-01-19T23:43:22.770Z,4.97
2018-01-19T23:45:50.849Z,4.97
2018-01-19T23:48:18.327Z,4.40
2018-01-19T23:50:47.154Z,4.70
2018-01-19T23:53:14.633Z,4.63
2018-01-19T23:55:44.129Z,5.63
2018-01-19T23:58:11.602Z,4.53
